sensor_id;sensor_type;location;lat;lon;timestamp;temperature;humidity
13332;DHT22;6735;51.456;12.626;2024-03-29T00:02:01;6.20;81.30
13332;DHT22;6735;51.456;12.626;2024-03-29T00:04:26;6.10;81.60
13332;DHT22;6735;51.456;12.626;2024-03-29T00:06:52;6.10;81.70
13332;DHT22;6735;51.456;12.626;2024-03-29T00:09:17;6.00;81.70
13332;DHT22;6735;51.456;12.626;2024-03-29T00:11:43;6.00;82.30
13332;DHT22;6735;51.456;12.626;2024-03-29T00:14:08;6.00;82.60
13332;DHT22;6735;51.456;12.626;2024-03-29T00:16:34;6.00;82.40
13332;DHT22;6735;51.456;12.626;2024-03-29T00:18:59;6.00;82.20
13332;DHT22;6735;51.456;12.626;2024-03-29T00:21:24;6.00;81.80
13332;DHT22;6735;51.456;12.626;2024-03-29T00:23:50;6.00;81.90
13332;DHT22;6735;51.456;12.626;2024-03-29T00:26:16;6.10;81.40
13332;DHT22;6735;51.456;12.626;2024-03-29T00:28:42;6.10;81.10
13332;DHT22;6735;51.456;12.626;2024-03-29T00:31:08;6.10;80.80
13332;DHT22;6735;51.456;12.626;2024-03-29T00:33:33;6.10;81.00
13332;DHT22;6735;51.456;12.626;2024-03-29T00:35:59;6.00;80.90
13332;DHT22;6735;51.456;12.626;2024-03-29T00:38:24;6.00;80.80
13332;DHT22;6735;51.456;12.626;2024-03-29T00:40:50;5.90;80.60
13332;DHT22;6735;51.456;12.626;2024-03-29T00:43:16;5.90;80.60
13332;DHT22;6735;51.456;12.626;2024-03-29T00:45:41;5.80;81.20
13332;DHT22;6735;51.456;12.626;2024-03-29T00:48:07;5.80;81.30
13332;DHT22;6735;51.456;12.626;2024-03-29T00:50:33;5.70;81.70
13332;DHT22;6735;51.456;12.626;2024-03-29T00:52:59;5.70;81.60
13332;DHT22;6735;51.456;12.626;2024-03-29T00:55:25;5.60;81.20
13332;DHT22;6735;51.456;12.626;2024-03-29T00:57:50;5.50;81.60
13332;DHT22;6735;51.456;12.626;2024-03-29T01:00:16;5.50;81.50
13332;DHT22;6735;51.456;12.626;2024-03-29T01:02:41;5.40;82.30
13332;DHT22;6735;51.456;12.626;2024-03-29T01:05:07;5.50;82.10
13332;DHT22;6735;51.456;12.626;2024-03-29T01:07:33;5.50;82.40
13332;DHT22;6735;51.456;12.626;2024-03-29T01:09:58;5.50;82.30
13332;DHT22;6735;51.456;12.626;2024-03-29T01:12:24;5.50;82.20
13332;DHT22;6735;51.456;12.626;2024-03-29T01:14:49;5.60;82.20
13332;DHT22;6735;51.456;12.626;2024-03-29T01:17:15;5.70;81.70
13332;DHT22;6735;51.456;12.626;2024-03-29T01:19:41;5.70;81.30
13332;DHT22;6735;51.456;12.626;2024-03-29T01:22:06;5.80;81.10
13332;DHT22;6735;51.456;12.626;2024-03-29T01:24:33;5.90;80.70
13332;DHT22;6735;51.456;12.626;2024-03-29T01:26:59;5.90;80.40
13332;DHT22;6735;51.456;12.626;2024-03-29T01:29:24;5.90;80.10
13332;DHT22;6735;51.456;12.626;2024-03-29T01:31:50;6.00;80.30
13332;DHT22;6735;51.456;12.626;2024-03-29T01:34:15;6.10;79.90
13332;DHT22;6735;51.456;12.626;2024-03-29T01:36:42;6.10;79.80
13332;DHT22;6735;51.456;12.626;2024-03-29T01:39:07;6.10;79.70
13332;DHT22;6735;51.456;12.626;2024-03-29T01:41:34;6.10;79.30
13332;DHT22;6735;51.456;12.626;2024-03-29T01:43:59;6.20;79.10
13332;DHT22;6735;51.456;12.626;2024-03-29T01:46:25;6.20;79.00
13332;DHT22;6735;51.456;12.626;2024-03-29T01:48:52;6.20;78.60
13332;DHT22;6735;51.456;12.626;2024-03-29T01:51:20;6.30;78.30
13332;DHT22;6735;51.456;12.626;2024-03-29T01:53:47;6.40;78.10
13332;DHT22;6735;51.456;12.626;2024-03-29T01:56:14;6.40;77.90
13332;DHT22;6735;51.456;12.626;2024-03-29T01:58:41;6.40;77.30
13332;DHT22;6735;51.456;12.626;2024-03-29T02:01:08;6.40;77.30
13332;DHT22;6735;51.456;12.626;2024-03-29T02:03:33;6.50;77.00
13332;DHT22;6735;51.456;12.626;2024-03-29T02:05:59;6.50;77.20
13332;DHT22;6735;51.456;12.626;2024-03-29T02:08:27;6.50;77.10
13332;DHT22;6735;51.456;12.626;2024-03-29T02:10:53;6.50;77.10
13332;DHT22;6735;51.456;12.626;2024-03-29T02:13:19;6.50;76.70
13332;DHT22;6735;51.456;12.626;2024-03-29T02:15:45;6.60;76.40
13332;DHT22;6735;51.456;12.626;2024-03-29T02:18:11;6.50;77.10
13332;DHT22;6735;51.456;12.626;2024-03-29T02:20:36;6.50;76.70
13332;DHT22;6735;51.456;12.626;2024-03-29T02:23:07;6.50;76.80
13332;DHT22;6735;51.456;12.626;2024-03-29T02:25:34;6.50;76.70
13332;DHT22;6735;51.456;12.626;2024-03-29T02:28:01;6.40;77.10
13332;DHT22;6735;51.456;12.626;2024-03-29T02:30:28;6.30;77.30
13332;DHT22;6735;51.456;12.626;2024-03-29T02:32:55;6.30;77.60
13332;DHT22;6735;51.456;12.626;2024-03-29T02:35:21;6.30;77.20
13332;DHT22;6735;51.456;12.626;2024-03-29T02:37:46;6.30;77.60
13332;DHT22;6735;51.456;12.626;2024-03-29T02:40:12;6.20;78.00
13332;DHT22;6735;51.456;12.626;2024-03-29T02:42:37;6.20;77.80
13332;DHT22;6735;51.456;12.626;2024-03-29T02:45:03;6.10;78.00
13332;DHT22;6735;51.456;12.626;2024-03-29T02:47:29;6.10;78.10
13332;DHT22;6735;51.456;12.626;2024-03-29T02:49:54;6.10;78.20
13332;DHT22;6735;51.456;12.626;2024-03-29T02:52:20;6.00;78.60
13332;DHT22;6735;51.456;12.626;2024-03-29T02:54:45;5.90;78.70
13332;DHT22;6735;51.456;12.626;2024-03-29T02:57:11;5.90;78.80
13332;DHT22;6735;51.456;12.626;2024-03-29T02:59:36;5.90;78.90
13332;DHT22;6735;51.456;12.626;2024-03-29T03:02:02;5.80;79.20
13332;DHT22;6735;51.456;12.626;2024-03-29T03:04:28;5.80;79.20
13332;DHT22;6735;51.456;12.626;2024-03-29T03:06:53;5.80;79.20
13332;DHT22;6735;51.456;12.626;2024-03-29T03:09:21;5.80;79.10
13332;DHT22;6735;51.456;12.626;2024-03-29T03:12:05;5.70;79.10
13332;DHT22;6735;51.456;12.626;2024-03-29T03:14:31;5.70;79.40
13332;DHT22;6735;51.456;12.626;2024-03-29T03:16:56;5.70;79.30
13332;DHT22;6735;51.456;12.626;2024-03-29T03:19:22;5.70;79.40
13332;DHT22;6735;51.456;12.626;2024-03-29T03:21:50;5.60;79.50
13332;DHT22;6735;51.456;12.626;2024-03-29T03:24:16;5.60;79.60
13332;DHT22;6735;51.456;12.626;2024-03-29T03:26:41;5.60;79.80
13332;DHT22;6735;51.456;12.626;2024-03-29T03:29:06;5.60;79.70
13332;DHT22;6735;51.456;12.626;2024-03-29T03:31:34;5.60;79.80
13332;DHT22;6735;51.456;12.626;2024-03-29T03:34:00;5.60;79.90
13332;DHT22;6735;51.456;12.626;2024-03-29T03:36:25;5.60;80.30
13332;DHT22;6735;51.456;12.626;2024-03-29T03:38:51;5.50;80.00
13332;DHT22;6735;51.456;12.626;2024-03-29T03:41:16;5.50;80.20
13332;DHT22;6735;51.456;12.626;2024-03-29T03:43:41;5.50;80.50
13332;DHT22;6735;51.456;12.626;2024-03-29T03:46:07;5.40;80.50
13332;DHT22;6735;51.456;12.626;2024-03-29T03:48:32;5.40;80.40
13332;DHT22;6735;51.456;12.626;2024-03-29T03:50:58;5.40;80.60
13332;DHT22;6735;51.456;12.626;2024-03-29T03:53:23;5.40;80.90
13332;DHT22;6735;51.456;12.626;2024-03-29T03:55:49;5.50;80.70
13332;DHT22;6735;51.456;12.626;2024-03-29T03:58:14;5.50;80.80
13332;DHT22;6735;51.456;12.626;2024-03-29T04:00:40;5.50;80.60
13332;DHT22;6735;51.456;12.626;2024-03-29T04:03:06;5.60;80.50
13332;DHT22;6735;51.456;12.626;2024-03-29T04:05:31;5.60;80.00
13332;DHT22;6735;51.456;12.626;2024-03-29T04:07:57;5.70;79.90
13332;DHT22;6735;51.456;12.626;2024-03-29T04:10:23;5.80;79.80
13332;DHT22;6735;51.456;12.626;2024-03-29T04:12:52;5.80;79.30
13332;DHT22;6735;51.456;12.626;2024-03-29T04:15:17;5.90;79.00
13332;DHT22;6735;51.456;12.626;2024-03-29T04:17:43;5.90;79.20
13332;DHT22;6735;51.456;12.626;2024-03-29T04:20:09;6.00;78.00
13332;DHT22;6735;51.456;12.626;2024-03-29T04:22:34;6.10;76.80
13332;DHT22;6735;51.456;12.626;2024-03-29T04:25:00;6.20;77.10
13332;DHT22;6735;51.456;12.626;2024-03-29T04:27:26;6.30;77.20
13332;DHT22;6735;51.456;12.626;2024-03-29T04:29:55;6.40;76.30
13332;DHT22;6735;51.456;12.626;2024-03-29T04:32:21;6.40;76.00
13332;DHT22;6735;51.456;12.626;2024-03-29T04:34:47;6.40;75.80
13332;DHT22;6735;51.456;12.626;2024-03-29T04:37:13;6.50;75.50
13332;DHT22;6735;51.456;12.626;2024-03-29T04:39:39;6.60;74.80
13332;DHT22;6735;51.456;12.626;2024-03-29T04:42:04;6.70;74.10
13332;DHT22;6735;51.456;12.626;2024-03-29T04:44:30;6.90;72.90
13332;DHT22;6735;51.456;12.626;2024-03-29T04:46:55;7.00;72.00
13332;DHT22;6735;51.456;12.626;2024-03-29T04:49:24;7.10;72.20
13332;DHT22;6735;51.456;12.626;2024-03-29T04:52:00;7.20;71.80
13332;DHT22;6735;51.456;12.626;2024-03-29T04:54:26;7.40;70.90
13332;DHT22;6735;51.456;12.626;2024-03-29T04:56:53;7.40;71.00
13332;DHT22;6735;51.456;12.626;2024-03-29T04:59:18;7.50;70.80
13332;DHT22;6735;51.456;12.626;2024-03-29T05:01:49;7.50;70.30
13332;DHT22;6735;51.456;12.626;2024-03-29T05:04:19;7.60;70.70
13332;DHT22;6735;51.456;12.626;2024-03-29T05:06:51;7.60;70.00
13332;DHT22;6735;51.456;12.626;2024-03-29T05:09:17;7.60;70.50
13332;DHT22;6735;51.456;12.626;2024-03-29T05:11:43;7.70;70.50
13332;DHT22;6735;51.456;12.626;2024-03-29T05:14:08;7.70;70.70
13332;DHT22;6735;51.456;12.626;2024-03-29T05:16:35;7.70;70.50
13332;DHT22;6735;51.456;12.626;2024-03-29T05:19:01;7.70;71.00
13332;DHT22;6735;51.456;12.626;2024-03-29T05:21:26;7.70;70.50
13332;DHT22;6735;51.456;12.626;2024-03-29T05:23:52;7.70;70.50
13332;DHT22;6735;51.456;12.626;2024-03-29T05:26:18;7.70;71.00
13332;DHT22;6735;51.456;12.626;2024-03-29T05:28:43;7.80;70.70
13332;DHT22;6735;51.456;12.626;2024-03-29T05:31:12;7.90;71.00
13332;DHT22;6735;51.456;12.626;2024-03-29T05:33:41;7.90;70.80
13332;DHT22;6735;51.456;12.626;2024-03-29T05:36:07;7.90;70.30
13332;DHT22;6735;51.456;12.626;2024-03-29T05:38:34;8.00;70.60
13332;DHT22;6735;51.456;12.626;2024-03-29T05:40:59;7.90;71.70
13332;DHT22;6735;51.456;12.626;2024-03-29T05:43:25;8.00;72.70
13332;DHT22;6735;51.456;12.626;2024-03-29T05:45:52;7.90;70.40
13332;DHT22;6735;51.456;12.626;2024-03-29T05:48:18;8.00;71.10
13332;DHT22;6735;51.456;12.626;2024-03-29T05:50:44;7.90;72.30
13332;DHT22;6735;51.456;12.626;2024-03-29T05:53:10;8.00;72.40
13332;DHT22;6735;51.456;12.626;2024-03-29T05:55:36;8.00;73.00
13332;DHT22;6735;51.456;12.626;2024-03-29T05:58:01;7.90;72.90
13332;DHT22;6735;51.456;12.626;2024-03-29T06:00:28;7.90;73.40
13332;DHT22;6735;51.456;12.626;2024-03-29T06:02:54;7.90;72.70
13332;DHT22;6735;51.456;12.626;2024-03-29T06:05:20;7.90;73.40
13332;DHT22;6735;51.456;12.626;2024-03-29T06:07:45;8.00;71.40
13332;DHT22;6735;51.456;12.626;2024-03-29T06:10:10;8.00;71.20
13332;DHT22;6735;51.456;12.626;2024-03-29T06:12:36;8.10;71.70
13332;DHT22;6735;51.456;12.626;2024-03-29T06:15:04;8.10;71.10
13332;DHT22;6735;51.456;12.626;2024-03-29T06:17:49;8.10;70.90
13332;DHT22;6735;51.456;12.626;2024-03-29T06:20:14;8.20;71.60
13332;DHT22;6735;51.456;12.626;2024-03-29T06:22:40;8.20;70.80
13332;DHT22;6735;51.456;12.626;2024-03-29T06:25:06;8.30;70.30
13332;DHT22;6735;51.456;12.626;2024-03-29T06:27:32;8.30;70.90
13332;DHT22;6735;51.456;12.626;2024-03-29T06:29:58;8.30;70.20
13332;DHT22;6735;51.456;12.626;2024-03-29T06:32:23;8.30;70.50
13332;DHT22;6735;51.456;12.626;2024-03-29T06:34:49;8.40;70.10
13332;DHT22;6735;51.456;12.626;2024-03-29T06:37:14;8.40;70.00
13332;DHT22;6735;51.456;12.626;2024-03-29T06:39:40;8.50;70.70
13332;DHT22;6735;51.456;12.626;2024-03-29T06:42:07;8.60;70.00
13332;DHT22;6735;51.456;12.626;2024-03-29T06:44:33;8.60;69.00
13332;DHT22;6735;51.456;12.626;2024-03-29T06:46:59;8.70;69.10
13332;DHT22;6735;51.456;12.626;2024-03-29T06:49:24;8.70;68.40
13332;DHT22;6735;51.456;12.626;2024-03-29T06:51:50;8.90;67.60
13332;DHT22;6735;51.456;12.626;2024-03-29T06:54:15;8.90;66.90
13332;DHT22;6735;51.456;12.626;2024-03-29T06:56:41;9.10;66.20
13332;DHT22;6735;51.456;12.626;2024-03-29T06:59:07;9.10;67.00
13332;DHT22;6735;51.456;12.626;2024-03-29T07:01:33;9.20;67.10
13332;DHT22;6735;51.456;12.626;2024-03-29T07:03:59;9.30;67.10
13332;DHT22;6735;51.456;12.626;2024-03-29T07:06:24;9.40;66.50
13332;DHT22;6735;51.456;12.626;2024-03-29T07:08:50;9.50;65.80
13332;DHT22;6735;51.456;12.626;2024-03-29T07:11:15;9.60;65.80
13332;DHT22;6735;51.456;12.626;2024-03-29T07:13:41;9.60;65.90
13332;DHT22;6735;51.456;12.626;2024-03-29T07:16:06;9.70;65.50
13332;DHT22;6735;51.456;12.626;2024-03-29T07:18:32;9.70;65.60
13332;DHT22;6735;51.456;12.626;2024-03-29T07:20:58;9.70;65.90
13332;DHT22;6735;51.456;12.626;2024-03-29T07:23:23;9.80;65.90
13332;DHT22;6735;51.456;12.626;2024-03-29T07:26:18;9.80;66.30
13332;DHT22;6735;51.456;12.626;2024-03-29T07:28:43;9.80;65.20
13332;DHT22;6735;51.456;12.626;2024-03-29T07:31:09;9.80;65.60
13332;DHT22;6735;51.456;12.626;2024-03-29T07:33:35;9.90;65.70
13332;DHT22;6735;51.456;12.626;2024-03-29T07:36:01;9.80;65.50
13332;DHT22;6735;51.456;12.626;2024-03-29T07:38:28;9.80;66.00
13332;DHT22;6735;51.456;12.626;2024-03-29T07:40:54;9.80;66.10
13332;DHT22;6735;51.456;12.626;2024-03-29T07:43:23;9.90;65.90
13332;DHT22;6735;51.456;12.626;2024-03-29T07:45:49;9.90;66.30
13332;DHT22;6735;51.456;12.626;2024-03-29T07:48:16;10.00;66.70
13332;DHT22;6735;51.456;12.626;2024-03-29T07:50:44;10.00;66.70
13332;DHT22;6735;51.456;12.626;2024-03-29T07:53:10;10.10;66.70
13332;DHT22;6735;51.456;12.626;2024-03-29T07:55:36;10.10;66.60
13332;DHT22;6735;51.456;12.626;2024-03-29T07:58:02;10.10;66.50
13332;DHT22;6735;51.456;12.626;2024-03-29T08:00:31;10.10;66.90
13332;DHT22;6735;51.456;12.626;2024-03-29T08:02:56;10.10;66.40
13332;DHT22;6735;51.456;12.626;2024-03-29T08:05:22;10.20;66.30
13332;DHT22;6735;51.456;12.626;2024-03-29T08:07:47;10.30;65.10
13332;DHT22;6735;51.456;12.626;2024-03-29T08:10:13;10.40;65.40
13332;DHT22;6735;51.456;12.626;2024-03-29T08:12:39;10.50;65.60
13332;DHT22;6735;51.456;12.626;2024-03-29T08:15:04;10.60;64.70
13332;DHT22;6735;51.456;12.626;2024-03-29T08:17:30;10.60;64.70
13332;DHT22;6735;51.456;12.626;2024-03-29T08:19:56;10.60;65.60
13332;DHT22;6735;51.456;12.626;2024-03-29T08:22:21;10.70;63.90
13332;DHT22;6735;51.456;12.626;2024-03-29T08:24:47;10.70;64.60
13332;DHT22;6735;51.456;12.626;2024-03-29T08:27:12;10.70;64.80
13332;DHT22;6735;51.456;12.626;2024-03-29T08:29:38;10.80;66.10
13332;DHT22;6735;51.456;12.626;2024-03-29T08:32:03;10.70;65.50
13332;DHT22;6735;51.456;12.626;2024-03-29T08:34:29;10.70;66.20
13332;DHT22;6735;51.456;12.626;2024-03-29T08:37:03;10.70;66.50
13332;DHT22;6735;51.456;12.626;2024-03-29T08:39:29;10.70;68.10
13332;DHT22;6735;51.456;12.626;2024-03-29T08:41:55;10.60;68.30
13332;DHT22;6735;51.456;12.626;2024-03-29T08:44:21;10.60;70.00
13332;DHT22;6735;51.456;12.626;2024-03-29T08:46:46;10.60;69.90
13332;DHT22;6735;51.456;12.626;2024-03-29T08:49:12;10.50;69.00
13332;DHT22;6735;51.456;12.626;2024-03-29T08:51:37;10.50;70.20
13332;DHT22;6735;51.456;12.626;2024-03-29T08:54:02;10.60;70.60
13332;DHT22;6735;51.456;12.626;2024-03-29T08:56:31;10.50;70.40
13332;DHT22;6735;51.456;12.626;2024-03-29T08:58:56;10.50;70.90
13332;DHT22;6735;51.456;12.626;2024-03-29T09:01:24;10.50;70.20
13332;DHT22;6735;51.456;12.626;2024-03-29T09:03:49;10.50;70.60
13332;DHT22;6735;51.456;12.626;2024-03-29T09:06:15;10.60;71.00
13332;DHT22;6735;51.456;12.626;2024-03-29T09:08:41;10.50;70.70
13332;DHT22;6735;51.456;12.626;2024-03-29T09:11:07;10.60;70.90
13332;DHT22;6735;51.456;12.626;2024-03-29T09:13:32;10.60;70.00
13332;DHT22;6735;51.456;12.626;2024-03-29T09:15:58;10.60;71.30
13332;DHT22;6735;51.456;12.626;2024-03-29T09:18:23;10.60;71.60
13332;DHT22;6735;51.456;12.626;2024-03-29T09:21:01;10.60;71.40
13332;DHT22;6735;51.456;12.626;2024-03-29T09:23:27;10.60;71.20
13332;DHT22;6735;51.456;12.626;2024-03-29T09:25:56;10.60;71.20
13332;DHT22;6735;51.456;12.626;2024-03-29T09:28:23;10.60;72.00
13332;DHT22;6735;51.456;12.626;2024-03-29T09:30:49;10.60;71.90
13332;DHT22;6735;51.456;12.626;2024-03-29T09:33:14;10.60;72.60
13332;DHT22;6735;51.456;12.626;2024-03-29T09:35:40;10.70;71.90
13332;DHT22;6735;51.456;12.626;2024-03-29T09:38:05;10.80;71.40
13332;DHT22;6735;51.456;12.626;2024-03-29T09:40:32;11.00;71.80
13332;DHT22;6735;51.456;12.626;2024-03-29T09:43:00;11.10;70.30
13332;DHT22;6735;51.456;12.626;2024-03-29T09:45:34;11.20;70.30
13332;DHT22;6735;51.456;12.626;2024-03-29T09:48:03;11.30;69.90
13332;DHT22;6735;51.456;12.626;2024-03-29T09:50:29;11.30;70.50
13332;DHT22;6735;51.456;12.626;2024-03-29T09:52:56;11.30;70.80
13332;DHT22;6735;51.456;12.626;2024-03-29T09:55:21;11.30;70.00
13332;DHT22;6735;51.456;12.626;2024-03-29T09:57:48;11.30;68.50
13332;DHT22;6735;51.456;12.626;2024-03-29T10:00:13;11.30;69.50
13332;DHT22;6735;51.456;12.626;2024-03-29T10:02:39;11.40;70.10
13332;DHT22;6735;51.456;12.626;2024-03-29T10:05:08;11.30;69.50
13332;DHT22;6735;51.456;12.626;2024-03-29T10:07:34;11.40;69.70
13332;DHT22;6735;51.456;12.626;2024-03-29T10:10:01;11.40;69.10
13332;DHT22;6735;51.456;12.626;2024-03-29T10:12:28;11.40;68.20
13332;DHT22;6735;51.456;12.626;2024-03-29T10:14:54;11.40;68.10
13332;DHT22;6735;51.456;12.626;2024-03-29T10:17:28;11.40;68.00
13332;DHT22;6735;51.456;12.626;2024-03-29T10:19:53;11.50;67.80
13332;DHT22;6735;51.456;12.626;2024-03-29T10:22:19;11.50;68.10
13332;DHT22;6735;51.456;12.626;2024-03-29T10:24:44;11.50;68.10
13332;DHT22;6735;51.456;12.626;2024-03-29T10:27:10;11.50;67.10
13332;DHT22;6735;51.456;12.626;2024-03-29T10:29:36;11.60;68.10
13332;DHT22;6735;51.456;12.626;2024-03-29T10:32:01;11.70;66.80
13332;DHT22;6735;51.456;12.626;2024-03-29T10:34:29;11.70;67.00
13332;DHT22;6735;51.456;12.626;2024-03-29T10:37:00;11.80;66.60
13332;DHT22;6735;51.456;12.626;2024-03-29T10:39:25;11.80;65.10
13332;DHT22;6735;51.456;12.626;2024-03-29T10:41:51;11.80;65.60
13332;DHT22;6735;51.456;12.626;2024-03-29T10:44:20;11.80;64.10
13332;DHT22;6735;51.456;12.626;2024-03-29T10:46:45;11.80;64.70
13332;DHT22;6735;51.456;12.626;2024-03-29T10:49:14;11.80;62.40
13332;DHT22;6735;51.456;12.626;2024-03-29T10:51:42;11.90;63.10
13332;DHT22;6735;51.456;12.626;2024-03-29T10:54:12;11.90;62.90
13332;DHT22;6735;51.456;12.626;2024-03-29T10:56:38;11.90;63.80
13332;DHT22;6735;51.456;12.626;2024-03-29T10:59:21;11.90;63.60
13332;DHT22;6735;51.456;12.626;2024-03-29T11:01:55;11.90;62.10
13332;DHT22;6735;51.456;12.626;2024-03-29T11:04:23;11.90;63.20
13332;DHT22;6735;51.456;12.626;2024-03-29T11:06:54;12.00;63.50
13332;DHT22;6735;51.456;12.626;2024-03-29T11:09:26;12.10;63.80
13332;DHT22;6735;51.456;12.626;2024-03-29T11:11:54;12.20;63.30
13332;DHT22;6735;51.456;12.626;2024-03-29T11:14:35;12.30;63.30
13332;DHT22;6735;51.456;12.626;2024-03-29T11:17:03;12.40;62.90
13332;DHT22;6735;51.456;12.626;2024-03-29T11:19:29;12.50;61.70
13332;DHT22;6735;51.456;12.626;2024-03-29T11:21:55;12.60;60.40
13332;DHT22;6735;51.456;12.626;2024-03-29T11:24:22;12.70;60.90
13332;DHT22;6735;51.456;12.626;2024-03-29T11:26:48;12.90;59.90
13332;DHT22;6735;51.456;12.626;2024-03-29T11:29:20;12.90;60.40
13332;DHT22;6735;51.456;12.626;2024-03-29T11:31:46;13.10;60.00
13332;DHT22;6735;51.456;12.626;2024-03-29T11:34:14;13.10;59.70
13332;DHT22;6735;51.456;12.626;2024-03-29T11:36:45;13.20;58.80
13332;DHT22;6735;51.456;12.626;2024-03-29T11:39:22;13.30;58.90
13332;DHT22;6735;51.456;12.626;2024-03-29T11:41:49;13.40;59.10
13332;DHT22;6735;51.456;12.626;2024-03-29T11:44:15;13.50;59.60
13332;DHT22;6735;51.456;12.626;2024-03-29T11:46:41;13.60;59.40
13332;DHT22;6735;51.456;12.626;2024-03-29T11:49:07;13.70;58.70
13332;DHT22;6735;51.456;12.626;2024-03-29T11:51:33;13.80;55.50
13332;DHT22;6735;51.456;12.626;2024-03-29T11:54:00;13.90;58.10
13332;DHT22;6735;51.456;12.626;2024-03-29T11:56:25;14.10;57.40
13332;DHT22;6735;51.456;12.626;2024-03-29T11:58:51;14.20;56.50
13332;DHT22;6735;51.456;12.626;2024-03-29T12:01:16;14.30;55.30
13332;DHT22;6735;51.456;12.626;2024-03-29T12:03:43;14.30;54.00
13332;DHT22;6735;51.456;12.626;2024-03-29T12:06:09;14.40;54.40
13332;DHT22;6735;51.456;12.626;2024-03-29T12:08:39;14.50;55.40
13332;DHT22;6735;51.456;12.626;2024-03-29T12:11:05;14.60;55.60
13332;DHT22;6735;51.456;12.626;2024-03-29T12:13:31;14.50;53.50
13332;DHT22;6735;51.456;12.626;2024-03-29T12:15:58;14.60;53.10
13332;DHT22;6735;51.456;12.626;2024-03-29T12:18:25;14.60;53.30
13332;DHT22;6735;51.456;12.626;2024-03-29T12:20:51;14.70;54.30
13332;DHT22;6735;51.456;12.626;2024-03-29T12:23:18;14.70;54.10
13332;DHT22;6735;51.456;12.626;2024-03-29T12:25:45;14.80;52.90
13332;DHT22;6735;51.456;12.626;2024-03-29T12:28:11;14.90;53.60
13332;DHT22;6735;51.456;12.626;2024-03-29T12:30:40;15.00;54.50
13332;DHT22;6735;51.456;12.626;2024-03-29T12:33:08;15.10;53.20
13332;DHT22;6735;51.456;12.626;2024-03-29T12:35:35;15.20;54.00
13332;DHT22;6735;51.456;12.626;2024-03-29T12:38:02;15.30;53.60
13332;DHT22;6735;51.456;12.626;2024-03-29T12:40:34;15.40;54.10
13332;DHT22;6735;51.456;12.626;2024-03-29T12:43:06;15.40;53.90
13332;DHT22;6735;51.456;12.626;2024-03-29T12:45:37;15.50;53.80
13332;DHT22;6735;51.456;12.626;2024-03-29T12:48:10;15.40;54.10
13332;DHT22;6735;51.456;12.626;2024-03-29T12:50:36;15.40;54.40
13332;DHT22;6735;51.456;12.626;2024-03-29T12:53:06;15.40;54.50
13332;DHT22;6735;51.456;12.626;2024-03-29T12:55:32;15.60;54.80
13332;DHT22;6735;51.456;12.626;2024-03-29T12:58:01;15.70;54.90
13332;DHT22;6735;51.456;12.626;2024-03-29T13:00:29;15.90;55.60
13332;DHT22;6735;51.456;12.626;2024-03-29T13:02:55;16.20;55.20
13332;DHT22;6735;51.456;12.626;2024-03-29T13:05:20;16.30;55.30
13332;DHT22;6735;51.456;12.626;2024-03-29T13:07:46;16.40;55.30
13332;DHT22;6735;51.456;12.626;2024-03-29T13:10:12;16.20;55.40
13332;DHT22;6735;51.456;12.626;2024-03-29T13:12:45;16.20;56.00
13332;DHT22;6735;51.456;12.626;2024-03-29T13:15:20;16.10;56.60
13332;DHT22;6735;51.456;12.626;2024-03-29T13:17:47;16.10;56.50
13332;DHT22;6735;51.456;12.626;2024-03-29T13:20:14;16.20;56.90
13332;DHT22;6735;51.456;12.626;2024-03-29T13:22:44;16.20;56.60
13332;DHT22;6735;51.456;12.626;2024-03-29T13:25:15;16.20;57.00
13332;DHT22;6735;51.456;12.626;2024-03-29T13:27:41;16.10;57.30
13332;DHT22;6735;51.456;12.626;2024-03-29T13:30:09;16.10;57.50
13332;DHT22;6735;51.456;12.626;2024-03-29T13:32:35;16.10;57.80
13332;DHT22;6735;51.456;12.626;2024-03-29T13:35:02;16.00;58.60
13332;DHT22;6735;51.456;12.626;2024-03-29T13:37:32;16.20;58.20
13332;DHT22;6735;51.456;12.626;2024-03-29T13:39:57;16.20;58.60
13332;DHT22;6735;51.456;12.626;2024-03-29T13:42:23;16.20;59.10
13332;DHT22;6735;51.456;12.626;2024-03-29T13:44:52;16.10;59.60
13332;DHT22;6735;51.456;12.626;2024-03-29T13:47:18;16.10;59.80
13332;DHT22;6735;51.456;12.626;2024-03-29T13:49:44;16.10;60.10
13332;DHT22;6735;51.456;12.626;2024-03-29T13:52:11;16.10;60.50
13332;DHT22;6735;51.456;12.626;2024-03-29T13:54:37;16.10;60.30
13332;DHT22;6735;51.456;12.626;2024-03-29T13:57:03;16.00;60.40
13332;DHT22;6735;51.456;12.626;2024-03-29T13:59:32;16.00;60.30
13332;DHT22;6735;51.456;12.626;2024-03-29T14:01:58;16.10;60.60
13332;DHT22;6735;51.456;12.626;2024-03-29T14:04:24;16.10;60.30
13332;DHT22;6735;51.456;12.626;2024-03-29T14:06:49;15.90;60.70
13332;DHT22;6735;51.456;12.626;2024-03-29T14:09:16;15.60;61.40
13332;DHT22;6735;51.456;12.626;2024-03-29T14:11:43;15.60;61.80
13332;DHT22;6735;51.456;12.626;2024-03-29T14:14:09;15.70;61.40
13332;DHT22;6735;51.456;12.626;2024-03-29T14:16:35;15.70;61.40
13332;DHT22;6735;51.456;12.626;2024-03-29T14:19:02;15.70;61.90
13332;DHT22;6735;51.456;12.626;2024-03-29T14:21:28;15.80;61.50
13332;DHT22;6735;51.456;12.626;2024-03-29T14:23:54;16.10;61.50
13332;DHT22;6735;51.456;12.626;2024-03-29T14:26:19;16.20;61.20
13332;DHT22;6735;51.456;12.626;2024-03-29T14:28:45;16.10;60.70
13332;DHT22;6735;51.456;12.626;2024-03-29T14:31:10;16.10;61.10
13332;DHT22;6735;51.456;12.626;2024-03-29T14:33:36;16.10;60.80
13332;DHT22;6735;51.456;12.626;2024-03-29T14:36:02;15.90;60.40
13332;DHT22;6735;51.456;12.626;2024-03-29T14:38:28;16.00;60.90
13332;DHT22;6735;51.456;12.626;2024-03-29T14:40:55;16.10;61.00
13332;DHT22;6735;51.456;12.626;2024-03-29T14:43:20;16.10;60.80
13332;DHT22;6735;51.456;12.626;2024-03-29T14:45:46;16.20;61.00
13332;DHT22;6735;51.456;12.626;2024-03-29T14:48:17;16.20;61.20
13332;DHT22;6735;51.456;12.626;2024-03-29T14:50:43;16.30;60.70
13332;DHT22;6735;51.456;12.626;2024-03-29T14:53:09;16.30;61.10
13332;DHT22;6735;51.456;12.626;2024-03-29T14:55:34;16.20;61.20
13332;DHT22;6735;51.456;12.626;2024-03-29T14:58:02;16.10;61.50
13332;DHT22;6735;51.456;12.626;2024-03-29T15:00:27;16.10;61.80
13332;DHT22;6735;51.456;12.626;2024-03-29T15:02:53;16.10;61.70
13332;DHT22;6735;51.456;12.626;2024-03-29T15:05:18;16.00;62.10
13332;DHT22;6735;51.456;12.626;2024-03-29T15:07:44;15.80;63.00
13332;DHT22;6735;51.456;12.626;2024-03-29T15:10:09;15.80;63.50
13332;DHT22;6735;51.456;12.626;2024-03-29T15:12:37;15.70;64.20
13332;DHT22;6735;51.456;12.626;2024-03-29T15:15:03;15.50;65.50
13332;DHT22;6735;51.456;12.626;2024-03-29T15:17:29;15.40;66.60
13332;DHT22;6735;51.456;12.626;2024-03-29T15:19:54;15.30;67.40
13332;DHT22;6735;51.456;12.626;2024-03-29T15:22:20;15.20;68.00
13332;DHT22;6735;51.456;12.626;2024-03-29T15:24:45;15.20;68.60
13332;DHT22;6735;51.456;12.626;2024-03-29T15:27:11;15.20;69.00
13332;DHT22;6735;51.456;12.626;2024-03-29T15:29:55;15.20;69.70
13332;DHT22;6735;51.456;12.626;2024-03-29T15:32:22;15.20;68.90
13332;DHT22;6735;51.456;12.626;2024-03-29T15:34:48;15.10;69.00